Time;durP1;ratioP1;P1;durP2;ratioP2;P2;SDS_P1;SDS_P2;PMS_P1;PMS_P2;Temp;Humidity;BMP_temperature;BMP_pressure;BME280_temperature;BME280_humidity;BME280_pressure;Samples;Min_cycle;Max_cycle;Signal;HPM_P1;HPM_P2
2023/03/27 00:00:26;;;;;;;14.23;2.05;;;1.90;99.90;;;;;;5015762;28;20124;-83
2023/03/27 00:02:52;;;;;;;13.88;2.83;;;1.20;99.90;;;;;;5010171;28;20030;-84
2023/03/27 00:05:21;;;;;;;13.77;2.85;;;2.10;99.90;;;;;;5007855;28;20401;-82
2023/03/27 00:07:47;;;;;;;16.75;2.60;;;2.10;99.90;;;;;;5008102;28;20505;-83
2023/03/27 00:10:13;;;;;;;14.52;2.97;;;2.00;99.90;;;;;;5009772;28;20494;-82
2023/03/27 00:12:39;;;;;;;7.78;2.20;;;1.90;99.90;;;;;;5026083;28;20036;-83
2023/03/27 00:15:06;;;;;;;13.98;2.80;;;1.70;99.90;;;;;;5007272;28;20517;-84
2023/03/27 00:17:32;;;;;;;9.35;1.92;;;1.90;99.90;;;;;;5011053;28;20034;-82
2023/03/27 00:19:58;;;;;;;13.73;2.47;;;1.70;99.90;;;;;;5010307;28;20034;-84
2023/03/27 00:22:23;;;;;;;13.13;2.25;;;1.90;99.90;;;;;;5003077;28;20026;-84
2023/03/27 00:24:49;;;;;;;13.90;2.90;;;2.00;99.90;;;;;;5009406;28;20063;-83
2023/03/27 00:27:15;;;;;;;9.25;2.60;;;1.80;99.90;;;;;;5028021;28;20414;-84
2023/03/27 00:29:40;;;;;;;17.42;2.53;;;1.80;99.90;;;;;;5005281;28;20034;-84
2023/03/27 00:32:06;;;;;;;8.25;2.70;;;1.70;99.90;;;;;;5018280;28;20482;-84
2023/03/27 00:34:31;;;;;;;14.35;2.33;;;1.80;99.90;;;;;;5006729;28;20108;-84
2023/03/27 00:36:57;;;;;;;14.18;3.40;;;1.70;99.90;;;;;;5023254;28;20033;-84
2023/03/27 00:39:23;;;;;;;25.52;2.80;;;1.80;99.90;;;;;;5036197;28;20041;-83
2023/03/27 00:41:49;;;;;;;11.18;2.00;;;2.10;99.90;;;;;;5011128;28;20496;-84
2023/03/27 00:44:26;;;;;;;9.63;1.92;;;1.40;99.90;;;;;;5004018;28;20453;-84
2023/03/27 00:46:54;;;;;;;14.57;2.22;;;2.10;99.90;;;;;;5007573;28;20441;-84
2023/03/27 00:49:19;;;;;;;20.88;3.08;;;1.50;99.90;;;;;;5005064;28;20619;-84
2023/03/27 00:51:45;;;;;;;11.65;2.85;;;1.50;99.90;;;;;;5006864;28;20049;-85
2023/03/27 00:54:15;;;;;;;14.40;2.15;;;1.10;99.90;;;;;;5004969;28;20034;-84
2023/03/27 00:56:40;;;;;;;11.50;2.30;;;1.90;99.90;;;;;;5010381;28;20036;-84
2023/03/27 00:59:14;;;;;;;13.15;3.10;;;1.30;99.90;;;;;;5004848;28;20034;-84
2023/03/27 01:01:40;;;;;;;16.90;2.35;;;1.40;99.90;;;;;;5008149;28;20116;-83
2023/03/27 01:04:05;;;;;;;11.40;1.70;;;1.30;99.90;;;;;;5004863;28;20462;-84
2023/03/27 01:06:31;;;;;;;7.70;2.28;;;1.30;99.90;;;;;;5005403;28;20033;-84
2023/03/27 01:08:57;;;;;;;8.35;1.73;;;1.40;99.90;;;;;;5030272;28;20034;-83
2023/03/27 01:11:42;;;;;;;15.70;2.22;;;1.20;99.90;;;;;;5018557;28;20117;-84
2023/03/27 01:14:23;;;;;;;9.65;1.85;;;1.40;99.90;;;;;;5033869;28;20077;-83
2023/03/27 01:17:16;;;;;;;9.95;1.67;;;3.20;99.90;;;;;;5013290;28;20513;-83
2023/03/27 01:20:23;;;;;;;10.55;1.73;;;1.60;99.90;;;;;;5022484;28;20076;-83
2023/03/27 01:22:58;;;;;;;11.18;2.05;;;1.40;99.90;;;;;;5011066;28;20084;-83
2023/03/27 01:25:56;;;;;;;13.98;1.90;;;1.40;99.90;;;;;;5033426;28;20033;-83
2023/03/27 01:28:30;;;;;;;11.07;1.52;;;1.30;99.90;;;;;;5032805;28;20033;-83
2023/03/27 01:30:58;;;;;;;15.35;1.90;;;1.20;99.90;;;;;;5032080;28;20120;-83
2023/03/27 01:33:45;;;;;;;13.80;2.17;;;1.30;99.90;;;;;;5020498;28;20034;-83
2023/03/27 01:36:29;;;;;;;19.77;2.28;;;1.30;99.90;;;;;;5034048;28;20034;-82
2023/03/27 01:39:29;;;;;;;9.55;1.75;;;1.10;99.90;;;;;;5034149;28;20037;-84
2023/03/27 01:42:24;;;;;;;15.23;2.30;;;1.10;99.90;;;;;;5021168;28;20497;-83
2023/03/27 01:45:12;;;;;;;11.93;2.28;;;1.20;99.90;;;;;;5019528;28;20109;-83
2023/03/27 01:47:45;;;;;;;10.82;1.75;;;1.30;99.90;;;;;;5029978;28;20037;-83
2023/03/27 01:50:13;;;;;;;11.52;2.10;;;1.00;99.90;;;;;;5003160;28;20040;-82
2023/03/27 01:52:40;;;;;;;9.70;1.75;;;1.10;99.90;;;;;;5020103;28;20041;-82
2023/03/27 01:55:09;;;;;;;11.93;1.98;;;1.00;99.90;;;;;;5003855;28;20490;-83
2023/03/27 01:57:47;;;;;;;10.85;2.03;;;0.90;99.90;;;;;;5017752;28;20584;-82
2023/03/27 02:00:16;;;;;;;13.82;2.08;;;0.80;99.90;;;;;;5007042;28;20517;-83
2023/03/27 02:02:45;;;;;;;5.78;1.50;;;0.80;99.90;;;;;;5020607;28;20026;-82
2023/03/27 02:05:12;;;;;;;9.55;1.95;;;1.00;99.90;;;;;;5025882;28;20040;-83
2023/03/27 02:07:39;;;;;;;11.13;1.98;;;1.70;99.90;;;;;;5005093;28;20085;-82
2023/03/27 02:10:07;;;;;;;14.07;2.10;;;0.90;99.90;;;;;;5002168;28;20122;-83
2023/03/27 02:12:37;;;;;;;9.90;1.85;;;1.00;99.90;;;;;;5020302;28;20480;-85
2023/03/27 02:15:11;;;;;;;14.13;2.47;;;2.00;99.90;;;;;;5005460;28;20033;-84
2023/03/27 02:17:43;;;;;;;8.63;1.80;;;0.80;99.90;;;;;;5006156;28;20046;-85
2023/03/27 02:20:11;;;;;;;5.15;1.48;;;0.60;99.90;;;;;;5008844;28;20501;-84
2023/03/27 02:22:38;;;;;;;5.35;1.67;;;0.40;99.90;;;;;;5003913;28;20117;-85
2023/03/27 02:25:24;;;;;;;12.60;1.67;;;1.70;99.90;;;;;;5004350;28;20033;-84
2023/03/27 02:27:57;;;;;;;10.90;2.10;;;0.80;99.90;;;;;;5010601;28;20042;-86
2023/03/27 02:30:31;;;;;;;10.75;1.80;;;1.10;99.90;;;;;;5008497;28;20527;-85
2023/03/27 02:33:00;;;;;;;7.82;1.98;;;1.10;99.90;;;;;;5008591;28;20071;-85
2023/03/27 02:35:39;;;;;;;9.50;2.35;;;0.90;99.90;;;;;;5022237;28;20381;-84
2023/03/27 02:38:31;;;;;;;9.70;1.65;;;0.90;99.90;;;;;;5024878;28;20388;-85
2023/03/27 02:41:03;;;;;;;11.07;2.65;;;0.80;99.90;;;;;;5032409;28;20022;-86
2023/03/27 02:43:29;;;;;;;15.98;1.83;;;0.60;99.90;;;;;;5031431;28;20030;-84
2023/03/27 02:46:08;;;;;;;5.45;1.42;;;0.60;99.90;;;;;;5022459;28;20500;-85
2023/03/27 02:48:39;;;;;;;5.43;1.52;;;0.80;99.90;;;;;;5018128;28;20032;-85
2023/03/27 02:51:17;;;;;;;5.20;0.93;;;0.50;99.90;;;;;;5005464;28;20047;-85
2023/03/27 02:53:50;;;;;;;9.57;1.58;;;0.90;99.90;;;;;;5020863;28;21133;-82
2023/03/27 02:56:15;;;;;;;9.30;1.45;;;0.70;99.90;;;;;;5018906;28;20036;-82
2023/03/27 02:59:05;;;;;;;5.65;1.40;;;0.80;99.90;;;;;;5005620;28;20034;-83
2023/03/27 03:01:31;;;;;;;7.75;1.77;;;0.80;99.90;;;;;;4999716;28;20481;-83
2023/03/27 03:04:11;;;;;;;9.07;1.45;;;0.50;99.90;;;;;;5018570;28;20083;-83
2023/03/27 03:06:41;;;;;;;14.15;1.80;;;0.60;99.90;;;;;;5009300;28;20040;-84
2023/03/27 03:09:07;;;;;;;18.90;2.58;;;0.50;99.90;;;;;;5000861;28;20445;-82
2023/03/27 03:11:34;;;;;;;5.68;1.10;;;0.60;99.90;;;;;;5006540;28;20461;-83
2023/03/27 03:14:00;;;;;;;11.70;1.50;;;0.50;99.90;;;;;;5016070;28;20533;-82
2023/03/27 03:16:27;;;;;;;7.68;1.58;;;0.70;99.90;;;;;;5027470;28;20036;-83
2023/03/27 03:18:53;;;;;;;10.25;1.98;;;0.80;99.90;;;;;;5018754;28;20025;-83
2023/03/27 03:21:18;;;;;;;10.05;1.58;;;0.70;99.90;;;;;;5010763;28;20371;-84
2023/03/27 03:23:45;;;;;;;11.40;1.85;;;0.90;99.90;;;;;;5016257;28;20033;-82
2023/03/27 03:26:11;;;;;;;14.07;2.13;;;0.70;99.90;;;;;;5018887;28;20029;-83
2023/03/27 03:28:36;;;;;;;7.47;1.58;;;0.50;99.90;;;;;;5011892;28;20501;-83
2023/03/27 03:31:02;;;;;;;7.80;2.00;;;0.20;99.90;;;;;;5010686;28;20402;-82
2023/03/27 03:33:28;;;;;;;4.43;1.23;;;0.90;99.90;;;;;;5006629;28;20026;-83
2023/03/27 03:35:57;;;;;;;10.48;1.95;;;0.50;99.90;;;;;;5015906;28;20156;-83
2023/03/27 03:38:26;;;;;;;12.57;2.70;;;0.80;99.90;;;;;;5009480;28;20608;-83
2023/03/27 03:40:56;;;;;;;12.35;2.38;;;0.80;99.90;;;;;;5022890;28;20033;-82
2023/03/27 03:43:23;;;;;;;16.65;1.45;;;0.90;99.90;;;;;;5003946;28;20041;-83
2023/03/27 03:45:49;;;;;;;8.48;1.77;;;0.80;99.90;;;;;;5006113;28;20493;-83
2023/03/27 03:48:15;;;;;;;4.75;1.40;;;0.90;99.90;;;;;;5006856;28;20168;-82
2023/03/27 03:50:41;;;;;;;8.90;1.98;;;1.30;99.90;;;;;;5018943;28;20578;-83
2023/03/27 03:53:07;;;;;;;9.75;1.50;;;0.70;99.90;;;;;;5006079;28;20037;-83
2023/03/27 03:55:32;;;;;;;3.65;1.13;;;0.40;99.90;;;;;;5009889;28;20062;-84
2023/03/27 03:57:58;;;;;;;6.78;1.83;;;0.50;99.90;;;;;;5001873;28;20026;-83
2023/03/27 04:00:24;;;;;;;15.30;1.83;;;0.50;99.90;;;;;;5009018;28;20037;-82
2023/03/27 04:02:51;;;;;;;14.05;2.25;;;0.30;99.90;;;;;;5020248;28;20029;-84
2023/03/27 04:05:16;;;;;;;9.45;3.38;;;0.90;99.90;;;;;;5026235;28;20372;-84
2023/03/27 04:07:42;;;;;;;11.57;1.60;;;0.10;99.90;;;;;;5015218;28;20034;-84
2023/03/27 04:10:08;;;;;;;7.82;2.08;;;1.80;99.90;;;;;;5006752;28;20040;-84
2023/03/27 04:12:34;;;;;;;3.20;1.25;;;0.50;99.90;;;;;;4993133;28;20025;-83
2023/03/27 04:14:59;;;;;;;7.57;1.80;;;0.30;99.90;;;;;;5005942;28;20513;-83
2023/03/27 04:17:25;;;;;;;6.85;1.98;;;0.50;99.90;;;;;;5006869;28;20033;-84
2023/03/27 04:19:53;;;;;;;10.55;2.55;;;0.70;99.90;;;;;;5010798;28;20033;-83
2023/03/27 04:22:21;;;;;;;12.05;1.92;;;-0.60;99.90;;;;;;5036584;28;20030;-83
2023/03/27 04:24:49;;;;;;;5.55;1.58;;;0.00;99.90;;;;;;5020525;28;20128;-83
2023/03/27 04:27:16;;;;;;;8.80;1.90;;;0.50;99.90;;;;;;5008343;28;20433;-83
2023/03/27 04:29:46;;;;;;;10.35;2.63;;;-0.20;99.90;;;;;;5012131;28;20053;-83
2023/03/27 04:32:17;;;;;;;8.73;2.05;;;0.50;99.90;;;;;;5007788;28;20026;-83
2023/03/27 04:34:44;;;;;;;6.70;1.98;;;0.60;99.90;;;;;;5010751;28;20039;-83
2023/03/27 04:37:09;;;;;;;6.75;2.33;;;-0.10;99.90;;;;;;5005070;28;20121;-83
2023/03/27 04:39:41;;;;;;;10.52;1.38;;;0.10;99.90;;;;;;5010997;28;20512;-84
2023/03/27 04:42:07;;;;;;;9.35;1.95;;;0.00;99.90;;;;;;5008074;28;20022;-83
2023/03/27 04:44:33;;;;;;;13.15;2.55;;;0.40;99.90;;;;;;5007720;28;20116;-85
2023/03/27 04:47:00;;;;;;;18.40;3.05;;;0.30;99.90;;;;;;5011842;28;20103;-85
2023/03/27 04:49:26;;;;;;;11.07;1.98;;;0.10;99.90;;;;;;5021661;28;20053;-84
2023/03/27 04:51:52;;;;;;;11.95;2.25;;;0.20;99.90;;;;;;5009986;28;20576;-83
2023/03/27 04:54:18;;;;;;;10.98;3.30;;;0.40;99.90;;;;;;5012376;28;20104;-84
2023/03/27 04:56:44;;;;;;;14.95;3.50;;;0.40;99.90;;;;;;5009352;28;20033;-84
2023/03/27 04:59:09;;;;;;;17.80;3.83;;;1.00;99.90;;;;;;5020665;28;20109;-83
2023/03/27 05:01:35;;;;;;;15.48;2.72;;;0.40;99.90;;;;;;5012380;28;20536;-83
2023/03/27 05:04:01;;;;;;;11.57;2.42;;;1.40;99.90;;;;;;5007051;28;20107;-83
2023/03/27 05:06:27;;;;;;;9.90;2.38;;;0.50;99.90;;;;;;5020358;28;20116;-83
2023/03/27 05:08:53;;;;;;;6.93;2.00;;;0.30;99.90;;;;;;5013218;28;20501;-84
2023/03/27 05:11:18;;;;;;;15.35;2.90;;;0.80;99.90;;;;;;5006027;28;20041;-84
2023/03/27 05:13:44;;;;;;;6.85;1.90;;;0.70;99.90;;;;;;5008188;28;20089;-84
2023/03/27 05:16:10;;;;;;;15.02;3.17;;;0.50;99.90;;;;;;5006102;28;20475;-85
2023/03/27 05:18:37;;;;;;;9.35;3.08;;;1.70;99.90;;;;;;5024303;28;20040;-84
2023/03/27 05:21:03;;;;;;;11.88;2.95;;;0.70;99.90;;;;;;5002762;28;20029;-85
2023/03/27 05:23:28;;;;;;;11.82;2.55;;;0.70;99.90;;;;;;5021922;28;20129;-85
2023/03/27 05:25:57;;;;;;;10.00;2.40;;;0.60;99.90;;;;;;5016732;28;20120;-83
2023/03/27 05:28:22;;;;;;;8.93;3.10;;;0.50;99.90;;;;;;5032232;28;20121;-84
2023/03/27 05:30:51;;;;;;;10.60;3.25;;;0.70;99.90;;;;;;5018850;28;20041;-84
2023/03/27 05:33:17;;;;;;;7.65;3.50;;;0.60;99.90;;;;;;5005525;28;20419;-82
2023/03/27 05:35:45;;;;;;;11.88;3.72;;;1.60;99.90;;;;;;5010529;28;20040;-82
2023/03/27 05:38:11;;;;;;;7.90;2.17;;;0.90;99.90;;;;;;5017815;28;20051;-82
2023/03/27 05:40:38;;;;;;;8.07;2.38;;;0.80;99.90;;;;;;5011850;28;20048;-83
2023/03/27 05:43:04;;;;;;;11.32;3.13;;;0.70;99.90;;;;;;5010423;28;20033;-84
2023/03/27 05:45:29;;;;;;;19.63;3.35;;;1.00;99.90;;;;;;5011375;28;20034;-83
2023/03/27 05:47:56;;;;;;;12.52;2.50;;;1.70;99.90;;;;;;5016033;28;20112;-85
2023/03/27 05:50:24;;;;;;;10.40;2.17;;;1.00;99.90;;;;;;5019757;28;20025;-82
2023/03/27 05:52:56;;;;;;;14.27;2.63;;;1.20;99.90;;;;;;5005337;28;20128;-78
2023/03/27 05:55:23;;;;;;;7.63;2.22;;;1.10;99.90;;;;;;5018951;28;20113;-79
2023/03/27 05:57:49;;;;;;;14.65;2.83;;;1.20;99.90;;;;;;5020601;28;20650;-78
2023/03/27 06:00:16;;;;;;;14.38;2.10;;;1.30;99.90;;;;;;5000653;28;20038;-79
2023/03/27 06:02:42;;;;;;;14.68;2.50;;;1.20;99.90;;;;;;5006474;28;20029;-79
2023/03/27 06:05:14;;;;;;;8.23;2.03;;;1.20;99.90;;;;;;5006710;28;20121;-79
2023/03/27 06:07:43;;;;;;;6.18;1.98;;;1.60;99.90;;;;;;5006473;28;20030;-80
2023/03/27 06:10:09;;;;;;;8.60;2.55;;;1.40;99.90;;;;;;5008880;28;20549;-78
2023/03/27 06:12:35;;;;;;;8.05;2.20;;;1.50;99.90;;;;;;5007864;28;20093;-78
2023/03/27 06:15:04;;;;;;;10.60;2.45;;;1.60;99.90;;;;;;5023865;28;20033;-78
2023/03/27 06:17:30;;;;;;;8.02;2.90;;;1.70;99.90;;;;;;5003428;28;21394;-78
2023/03/27 06:19:56;;;;;;;9.90;2.30;;;1.60;99.90;;;;;;5031450;28;20037;-77
2023/03/27 06:22:22;;;;;;;6.43;2.35;;;1.30;99.90;;;;;;5035333;28;20026;-77
2023/03/27 06:24:48;;;;;;;9.23;2.55;;;1.70;99.90;;;;;;5008156;28;20040;-78
2023/03/27 06:27:13;;;;;;;9.82;2.53;;;1.70;99.90;;;;;;5015956;28;20022;-78
2023/03/27 06:29:39;;;;;;;13.63;3.00;;;1.90;99.90;;;;;;4996291;28;20420;-77
2023/03/27 06:32:05;;;;;;;9.43;2.45;;;1.70;99.90;;;;;;5016295;28;20406;-78
2023/03/27 06:34:30;;;;;;;17.92;2.97;;;1.90;99.90;;;;;;5024642;28;20037;-78
2023/03/27 06:36:58;;;;;;;12.90;3.13;;;2.30;99.90;;;;;;5022567;28;20487;-78
2023/03/27 06:39:26;;;;;;;11.32;2.63;;;1.90;99.90;;;;;;5020327;28;20068;-78
2023/03/27 06:41:52;;;;;;;10.77;3.10;;;1.80;99.90;;;;;;5007043;28;20050;-79
2023/03/27 06:44:17;;;;;;;10.52;3.05;;;2.00;99.90;;;;;;5024078;28;20050;-77
2023/03/27 06:46:43;;;;;;;13.25;3.30;;;2.20;99.90;;;;;;5005484;28;20040;-79
2023/03/27 06:49:10;;;;;;;14.25;3.05;;;2.30;99.90;;;;;;5031181;28;20029;-78
2023/03/27 06:51:35;;;;;;;11.88;3.35;;;2.80;99.90;;;;;;5035527;28;20037;-77
2023/03/27 06:54:03;;;;;;;9.95;2.70;;;2.30;99.90;;;;;;5016949;28;20512;-77
2023/03/27 06:56:29;;;;;;;13.73;2.97;;;2.80;99.90;;;;;;5009923;28;20033;-77
2023/03/27 06:58:55;;;;;;;7.72;2.58;;;2.20;99.90;;;;;;5010340;28;20498;-77
2023/03/27 07:01:21;;;;;;;14.23;3.20;;;2.40;99.90;;;;;;5009132;28;20092;-77
2023/03/27 07:03:47;;;;;;;13.25;3.72;;;2.30;99.90;;;;;;5045145;28;20029;-77
2023/03/27 07:06:13;;;;;;;12.68;3.10;;;2.00;99.90;;;;;;5014617;28;20120;-77
2023/03/27 07:08:38;;;;;;;7.00;2.58;;;4.00;99.90;;;;;;5019947;28;20033;-78
2023/03/27 07:11:04;;;;;;;11.15;2.72;;;2.30;99.90;;;;;;5042495;28;20050;-77
2023/03/27 07:13:30;;;;;;;7.75;2.72;;;2.60;99.90;;;;;;5017135;28;20036;-78
2023/03/27 07:15:56;;;;;;;7.40;2.67;;;2.50;99.90;;;;;;5006805;28;20108;-78
2023/03/27 07:18:21;;;;;;;5.47;2.65;;;2.60;99.90;;;;;;5025722;28;20029;-77
2023/03/27 07:20:49;;;;;;;12.35;2.47;;;2.90;99.90;;;;;;5019747;28;20025;-78
2023/03/27 07:23:14;;;;;;;7.75;2.53;;;2.90;99.90;;;;;;5038305;28;20029;-78
2023/03/27 07:25:40;;;;;;;13.98;3.10;;;3.10;99.90;;;;;;5014949;28;20149;-77
2023/03/27 07:28:08;;;;;;;6.80;2.03;;;3.10;99.90;;;;;;5037196;28;20037;-77
2023/03/27 07:30:34;;;;;;;5.35;1.83;;;3.30;99.90;;;;;;5032331;28;20051;-79
2023/03/27 07:33:00;;;;;;;4.47;1.63;;;3.40;99.90;;;;;;5015375;28;20461;-79
2023/03/27 07:35:26;;;;;;;5.50;1.52;;;3.50;99.90;;;;;;5035117;28;20040;-79
2023/03/27 07:37:52;;;;;;;3.88;1.23;;;3.90;99.90;;;;;;5014432;28;20037;-79
2023/03/27 07:40:21;;;;;;;4.25;1.38;;;3.70;99.90;;;;;;5017977;28;20025;-79
2023/03/27 07:42:48;;;;;;;6.00;1.80;;;4.40;99.90;;;;;;5018116;28;20021;-79
2023/03/27 07:45:15;;;;;;;7.05;1.52;;;4.10;99.90;;;;;;5011671;28;20018;-80
2023/03/27 07:47:40;;;;;;;6.13;1.30;;;4.60;99.90;;;;;;5028658;28;20025;-79
2023/03/27 07:50:09;;;;;;;6.93;1.00;;;4.30;99.90;;;;;;5008685;28;20041;-79
2023/03/27 07:52:35;;;;;;;8.90;1.50;;;4.50;99.90;;;;;;5037762;28;20556;-78
2023/03/27 07:55:01;;;;;;;3.88;1.45;;;4.70;99.90;;;;;;5018653;28;20038;-78
2023/03/27 07:57:28;;;;;;;6.78;1.27;;;4.90;99.90;;;;;;5006328;28;20053;-78
2023/03/27 07:59:54;;;;;;;10.40;1.98;;;4.60;99.90;;;;;;5029552;28;20030;-79
2023/03/27 08:02:20;;;;;;;4.45;1.33;;;4.60;99.90;;;;;;5010328;28;20114;-78
2023/03/27 08:04:45;;;;;;;8.10;1.45;;;4.70;99.90;;;;;;5015871;28;20060;-78
2023/03/27 08:07:11;;;;;;;4.13;1.02;;;4.80;99.90;;;;;;5000929;28;20026;-78
2023/03/27 08:09:37;;;;;;;3.53;1.05;;;4.90;99.90;;;;;;5015536;28;20037;-79
2023/03/27 08:12:05;;;;;;;4.88;1.50;;;4.70;99.90;;;;;;5008981;28;20588;-78
2023/03/27 08:14:31;;;;;;;8.30;1.63;;;5.00;99.90;;;;;;5035509;28;20047;-78
2023/03/27 08:16:57;;;;;;;5.25;0.88;;;5.10;99.90;;;;;;5017913;28;20087;-79
2023/03/27 08:19:24;;;;;;;8.40;1.45;;;5.00;99.90;;;;;;5030769;28;20034;-78
2023/03/27 08:21:49;;;;;;;3.10;0.88;;;4.90;99.90;;;;;;5010454;28;20108;-79
2023/03/27 08:24:15;;;;;;;5.18;1.10;;;4.70;99.90;;;;;;5024164;28;20117;-78
2023/03/27 08:26:41;;;;;;;8.23;1.08;;;5.00;99.90;;;;;;5003050;28;20029;-82
2023/03/27 08:29:07;;;;;;;5.22;1.20;;;5.00;99.90;;;;;;5027926;28;20026;-81
2023/03/27 08:31:33;;;;;;;2.70;0.88;;;4.90;99.90;;;;;;5015463;28;20053;-81
2023/03/27 08:33:58;;;;;;;18.02;3.75;;;5.20;99.90;;;;;;5030239;28;20049;-81
2023/03/27 08:36:24;;;;;;;14.75;1.55;;;5.40;99.90;;;;;;5031722;28;20040;-81
2023/03/27 08:38:50;;;;;;;2.58;1.10;;;5.20;99.90;;;;;;5015036;28;20029;-82
2023/03/27 08:41:25;;;;;;;5.07;1.20;;;5.30;99.90;;;;;;5024626;28;20040;-80
2023/03/27 08:43:52;;;;;;;8.43;1.55;;;5.90;99.90;;;;;;5017541;28;20060;-81
2023/03/27 08:46:35;;;;;;;8.23;1.30;;;6.00;99.90;;;;;;5022852;28;20034;-81
2023/03/27 08:49:18;;;;;;;4.60;1.00;;;6.10;99.90;;;;;;5030932;28;20110;-82
2023/03/27 08:51:58;;;;;;;3.47;1.45;;;6.10;99.90;;;;;;5023922;28;20038;-81
2023/03/27 08:54:28;;;;;;;4.90;1.10;;;6.10;99.90;;;;;;5013793;28;20033;-78
2023/03/27 08:56:54;;;;;;;5.22;1.60;;;6.20;99.90;;;;;;5035937;28;20030;-78
2023/03/27 08:59:28;;;;;;;5.90;1.63;;;6.30;99.90;;;;;;5025862;28;20041;-79
2023/03/27 09:02:00;;;;;;;10.40;1.30;;;6.50;99.90;;;;;;5013591;28;20119;-78
2023/03/27 09:04:49;;;;;;;2.55;1.05;;;6.40;99.90;;;;;;5027256;28;20087;-79
2023/03/27 09:07:21;;;;;;;5.00;1.20;;;6.60;99.90;;;;;;5039328;28;20056;-78
2023/03/27 09:10:02;;;;;;;7.22;1.58;;;5.80;99.90;;;;;;5026533;28;20060;-78
2023/03/27 09:13:06;;;;;;;8.32;1.17;;;6.90;99.90;;;;;;5028884;28;20029;-78
2023/03/27 09:15:36;;;;;;;7.78;1.00;;;7.00;99.90;;;;;;5023653;28;20487;-78
2023/03/27 09:18:43;;;;;;;6.95;1.17;;;7.00;99.90;;;;;;5012978;28;20025;-78
2023/03/27 09:21:20;;;;;;;4.50;1.10;;;7.20;99.90;;;;;;5017438;28;20026;-78
2023/03/27 09:23:46;;;;;;;9.18;1.42;;;7.20;99.90;;;;;;5005707;28;20100;-78
2023/03/27 09:26:15;;;;;;;4.43;1.05;;;7.50;99.90;;;;;;5022452;28;20029;-78
2023/03/27 09:28:52;;;;;;;3.60;0.80;;;7.30;99.90;;;;;;5025126;28;20041;-79
2023/03/27 09:31:25;;;;;;;8.18;1.40;;;7.50;99.90;;;;;;5032446;28;20633;-79
2023/03/27 09:33:51;;;;;;;10.15;2.42;;;7.50;99.90;;;;;;5012644;28;20113;-78
2023/03/27 09:36:16;;;;;;;7.88;1.55;;;7.30;99.90;;;;;;5026667;28;20391;-78
2023/03/27 09:38:49;;;;;;;3.83;0.98;;;7.60;99.90;;;;;;5030282;28;20883;-79
2023/03/27 09:41:21;;;;;;;5.85;1.35;;;7.60;99.90;;;;;;5018553;28;20561;-78
2023/03/27 09:44:09;;;;;;;5.70;0.90;;;7.80;99.90;;;;;;4990379;28;20485;-78
2023/03/27 09:46:36;;;;;;;5.00;0.88;;;7.80;99.90;;;;;;5017475;28;20112;-78
2023/03/27 09:49:07;;;;;;;6.03;1.05;;;7.90;99.90;;;;;;5007110;28;20037;-78
2023/03/27 09:51:52;;;;;;;5.75;1.13;;;8.10;99.90;;;;;;5016728;28;20059;-78
2023/03/27 09:54:20;;;;;;;4.07;1.00;;;8.30;99.90;;;;;;5018638;28;20633;-79
2023/03/27 09:57:19;;;;;;;9.20;1.45;;;8.50;99.90;;;;;;5003535;28;20029;-78
2023/03/27 09:59:58;;;;;;;5.65;1.27;;;8.20;99.90;;;;;;4981114;28;20056;-78
2023/03/27 10:02:29;;;;;;;3.05;0.88;;;8.40;99.90;;;;;;5014671;28;20037;-78
2023/03/27 10:05:18;;;;;;;3.78;0.60;;;8.50;99.90;;;;;;5035325;28;20827;-79
2023/03/27 10:07:44;;;;;;;6.35;1.50;;;8.60;99.90;;;;;;5016074;28;20115;-78
2023/03/27 10:10:18;;;;;;;7.00;0.82;;;8.50;99.90;;;;;;5032552;28;20544;-79
2023/03/27 10:12:52;;;;;;;7.88;1.63;;;8.70;99.90;;;;;;5018973;28;20539;-78
2023/03/27 10:15:33;;;;;;;2.40;0.85;;;8.80;99.90;;;;;;5012799;28;20112;-77
2023/03/27 10:18:00;;;;;;;6.68;0.90;;;9.00;99.90;;;;;;5017986;28;20537;-78
2023/03/27 10:20:25;;;;;;;9.38;1.65;;;9.10;99.90;;;;;;5017181;28;20120;-78
2023/03/27 10:23:02;;;;;;;4.55;0.82;;;9.40;99.90;;;;;;5032654;28;20577;-78
2023/03/27 10:25:35;;;;;;;6.70;1.08;;;9.20;99.90;;;;;;5030011;28;20530;-78
2023/03/27 10:28:22;;;;;;;7.38;0.73;;;9.50;99.90;;;;;;5017027;28;20108;-78
2023/03/27 10:31:02;;;;;;;5.97;1.05;;;9.50;99.90;;;;;;5018799;28;20492;-79
2023/03/27 10:33:38;;;;;;;2.65;1.30;;;9.40;99.90;;;;;;5021525;28;20528;-78
2023/03/27 10:36:05;;;;;;;4.68;0.85;;;9.40;99.90;;;;;;5005708;28;20046;-78
2023/03/27 10:38:31;;;;;;;2.65;0.55;;;9.40;99.90;;;;;;5035554;28;21311;-78
2023/03/27 10:40:57;;;;;;;3.45;0.85;;;9.40;99.90;;;;;;5006436;28;20100;-78
2023/03/27 10:43:38;;;;;;;2.17;0.50;;;9.10;99.90;;;;;;5021671;28;20036;-78
2023/03/27 10:46:12;;;;;;;2.58;0.70;;;9.30;99.90;;;;;;5007336;28;20466;-78
2023/03/27 10:48:41;;;;;;;4.88;1.23;;;9.00;99.90;;;;;;5005789;28;20045;-78
2023/03/27 10:51:18;;;;;;;4.50;0.63;;;9.10;99.90;;;;;;5025252;28;20136;-79
2023/03/27 10:53:48;;;;;;;2.60;0.60;;;8.80;99.90;;;;;;5011596;28;20037;-77
2023/03/27 10:56:23;;;;;;;1.08;0.40;;;9.00;99.90;;;;;;5019990;28;20053;-78
2023/03/27 10:58:54;;;;;;;4.40;0.70;;;8.80;99.90;;;;;;5020943;28;20030;-78
2023/03/27 11:01:27;;;;;;;5.47;0.70;;;8.80;99.90;;;;;;5025004;28;20117;-79
2023/03/27 11:04:03;;;;;;;2.00;0.43;;;9.40;99.90;;;;;;5019837;28;20022;-77
2023/03/27 11:06:32;;;;;;;2.58;0.88;;;9.40;99.90;;;;;;5021488;28;20033;-78
2023/03/27 11:09:22;;;;;;;3.90;0.82;;;9.10;99.90;;;;;;5007518;28;20461;-78
2023/03/27 11:12:00;;;;;;;4.43;1.15;;;9.30;99.90;;;;;;5035166;28;20141;-78
2023/03/27 11:14:30;;;;;;;2.83;0.60;;;9.20;99.90;;;;;;5008372;28;20393;-78
2023/03/27 11:17:02;;;;;;;4.43;1.00;;;9.50;99.90;;;;;;5016830;28;20075;-77
2023/03/27 11:19:42;;;;;;;2.97;0.75;;;9.50;99.90;;;;;;5012625;28;20400;-78
2023/03/27 11:22:12;;;;;;;4.03;0.82;;;9.80;99.90;;;;;;5009757;28;20104;-79
2023/03/27 11:24:46;;;;;;;2.45;0.70;;;10.10;99.90;;;;;;4990698;28;20037;-78
2023/03/27 11:27:19;;;;;;;5.43;0.75;;;9.80;99.90;;;;;;5008883;28;20026;-78
2023/03/27 11:29:57;;;;;;;4.35;0.80;;;9.20;99.90;;;;;;5024189;28;20509;-78
2023/03/27 11:32:32;;;;;;;2.40;0.68;;;9.20;99.90;;;;;;5020600;28;20121;-78
2023/03/27 11:35:02;;;;;;;5.45;0.80;;;9.00;99.90;;;;;;5011532;28;20034;-78
2023/03/27 11:37:46;;;;;;;0.50;0.47;;;8.70;99.90;;;;;;5009575;28;20041;-77
2023/03/27 11:40:22;;;;;;;1.83;0.40;;;8.80;99.90;;;;;;5035008;28;20100;-78
2023/03/27 11:42:48;;;;;;;1.50;0.50;;;8.50;99.90;;;;;;5039486;28;20030;-77
2023/03/27 11:45:16;;;;;;;2.50;0.60;;;8.40;99.90;;;;;;5029365;28;20083;-77
2023/03/27 11:48:00;;;;;;;2.42;0.63;;;8.50;99.90;;;;;;5011824;28;20025;-77
2023/03/27 11:50:47;;;;;;;1.98;0.70;;;8.70;99.90;;;;;;5026158;28;20037;-79
2023/03/27 11:53:26;;;;;;;2.30;0.50;;;8.80;99.90;;;;;;5024094;28;20462;-77
2023/03/27 11:56:05;;;;;;;1.98;0.35;;;8.80;99.90;;;;;;5025389;28;20580;-78
2023/03/27 11:58:53;;;;;;;2.80;0.98;;;9.30;99.90;;;;;;5022746;28;20025;-77
2023/03/27 12:01:36;;;;;;;0.68;0.30;;;9.20;99.90;;;;;;5025755;28;20461;-78
2023/03/27 12:04:08;;;;;;;2.33;0.85;;;9.40;99.90;;;;;;5009098;28;20485;-78
2023/03/27 12:06:49;;;;;;;1.80;0.45;;;8.50;99.90;;;;;;5011568;28;20598;-78
2023/03/27 12:09:41;;;;;;;2.05;0.55;;;8.50;99.90;;;;;;5025699;28;20037;-78
2023/03/27 12:12:16;;;;;;;1.63;0.30;;;8.50;99.90;;;;;;5022156;28;20551;-77
2023/03/27 12:15:09;;;;;;;0.70;0.45;;;8.50;99.90;;;;;;5020020;28;20088;-78
2023/03/27 12:17:40;;;;;;;1.98;1.02;;;8.30;99.90;;;;;;5023132;28;20032;-77
2023/03/27 12:20:17;;;;;;;3.30;0.60;;;8.30;99.90;;;;;;5024470;28;20034;-78
2023/03/27 12:23:05;;;;;;;2.47;0.75;;;7.70;99.90;;;;;;5025134;28;20030;-77
2023/03/27 12:25:37;;;;;;;1.38;0.60;;;8.40;99.90;;;;;;4996258;28;20822;-78
2023/03/27 12:28:28;;;;;;;4.00;0.63;;;7.60;99.90;;;;;;5030273;28;20034;-78
2023/03/27 12:31:22;;;;;;;2.05;0.57;;;8.50;99.90;;;;;;5043188;28;20401;-78
2023/03/27 12:34:03;;;;;;;3.30;0.60;;;8.70;99.90;;;;;;5021079;28;20053;-77
2023/03/27 12:36:36;;;;;;;4.53;0.90;;;8.50;99.90;;;;;;5034714;28;20037;-79
2023/03/27 12:39:09;;;;;;;2.70;0.80;;;9.00;99.90;;;;;;5018366;28;20040;-78
2023/03/27 12:41:36;;;;;;;1.92;0.68;;;8.30;99.90;;;;;;5028202;28;20166;-79
2023/03/27 12:44:03;;;;;;;4.18;0.85;;;8.50;99.90;;;;;;5018607;28;20030;-77
2023/03/27 12:46:37;;;;;;;2.10;0.60;;;8.30;99.90;;;;;;5024111;28;20040;-79
2023/03/27 12:49:11;;;;;;;1.77;0.55;;;9.00;99.90;;;;;;5014184;28;20565;-79
2023/03/27 12:51:47;;;;;;;2.50;0.50;;;9.80;99.90;;;;;;5052733;28;20112;-80
2023/03/27 12:54:18;;;;;;;2.55;0.65;;;8.80;99.90;;;;;;5028625;28;20045;-80
2023/03/27 12:57:04;;;;;;;2.13;0.50;;;9.30;99.90;;;;;;5031494;28;20026;-78
2023/03/27 12:59:32;;;;;;;4.07;0.80;;;8.80;99.90;;;;;;5024476;28;20029;-77
2023/03/27 13:02:07;;;;;;;7.30;0.80;;;8.40;99.90;;;;;;5027257;28;20297;-78
2023/03/27 13:04:55;;;;;;;7.57;1.33;;;8.10;99.90;;;;;;5032131;28;20557;-78
2023/03/27 13:07:27;;;;;;;2.67;0.52;;;7.60;99.90;;;;;;5025133;28;20034;-79
2023/03/27 13:10:11;;;;;;;4.78;0.65;;;7.30;99.90;;;;;;5008030;28;20056;-79
2023/03/27 13:12:41;;;;;;;3.70;0.75;;;6.90;99.90;;;;;;5028425;28;20038;-80